sensor_id;sensor_type;location;lat;lon;timestamp;pressure;altitude;pressure_sealevel;temperature;humidity
64200;BME280;50516;52.272;5.136;2023-06-10T00:01:50;101540.72;;;22.29;47.38
64200;BME280;50516;52.272;5.136;2023-06-10T00:04:16;101551.06;;;22.29;47.66
64200;BME280;50516;52.272;5.136;2023-06-10T00:06:43;101550.72;;;22.39;47.62
64200;BME280;50516;52.272;5.136;2023-06-10T00:09:09;101551.84;;;22.38;47.18
64200;BME280;50516;52.272;5.136;2023-06-10T00:11:36;101547.28;;;22.24;47.53
64200;BME280;50516;52.272;5.136;2023-06-10T00:14:02;101552.03;;;22.33;47.45
64200;BME280;50516;52.272;5.136;2023-06-10T00:16:27;101556.16;;;22.35;46.93
64200;BME280;50516;52.272;5.136;2023-06-10T00:18:53;101551.72;;;22.25;47.29
64200;BME280;50516;52.272;5.136;2023-06-10T00:21:21;101549.59;;;22.14;47.30
64200;BME280;50516;52.272;5.136;2023-06-10T00:23:46;101553.69;;;22.25;47.20
64200;BME280;50516;52.272;5.136;2023-06-10T00:26:12;101550.44;;;22.14;47.27
64200;BME280;50516;52.272;5.136;2023-06-10T00:28:39;101556.06;;;22.05;47.12
64200;BME280;50516;52.272;5.136;2023-06-10T00:31:05;101552.59;;;22.09;46.92
64200;BME280;50516;52.272;5.136;2023-06-10T00:33:30;101548.66;;;22.01;47.27
64200;BME280;50516;52.272;5.136;2023-06-10T00:35:56;101554.59;;;21.99;46.99
64200;BME280;50516;52.272;5.136;2023-06-10T00:38:21;101555.72;;;22.07;47.00
64200;BME280;50516;52.272;5.136;2023-06-10T00:40:47;101559.38;;;21.99;46.95
64200;BME280;50516;52.272;5.136;2023-06-10T00:43:12;101559.06;;;21.92;46.74
64200;BME280;50516;52.272;5.136;2023-06-10T00:45:38;101551.69;;;21.87;47.08
64200;BME280;50516;52.272;5.136;2023-06-10T00:48:03;101557.25;;;21.87;46.97
64200;BME280;50516;52.272;5.136;2023-06-10T00:50:32;101563.81;;;21.91;46.87
64200;BME280;50516;52.272;5.136;2023-06-10T00:52:58;101562.38;;;21.85;46.85
64200;BME280;50516;52.272;5.136;2023-06-10T00:55:25;101558.44;;;21.77;46.66
64200;BME280;50516;52.272;5.136;2023-06-10T00:57:52;101559.25;;;21.78;47.05
64200;BME280;50516;52.272;5.136;2023-06-10T01:00:24;101558.75;;;21.76;46.71
64200;BME280;50516;52.272;5.136;2023-06-10T01:02:50;101562.22;;;21.73;46.92
64200;BME280;50516;52.272;5.136;2023-06-10T01:05:17;101558.94;;;21.70;46.69
64200;BME280;50516;52.272;5.136;2023-06-10T01:07:50;101563.88;;;21.74;46.45
64200;BME280;50516;52.272;5.136;2023-06-10T01:10:57;101559.25;;;21.60;47.00
64200;BME280;50516;52.272;5.136;2023-06-10T01:13:25;101567.66;;;21.60;46.78
64200;BME280;50516;52.272;5.136;2023-06-10T01:15:54;101561.41;;;21.55;47.07
64200;BME280;50516;52.272;5.136;2023-06-10T01:18:23;101558.78;;;21.58;47.02
64200;BME280;50516;52.272;5.136;2023-06-10T01:20:48;101565.69;;;21.52;46.71
64200;BME280;50516;52.272;5.136;2023-06-10T01:23:15;101566.50;;;21.52;46.64
64200;BME280;50516;52.272;5.136;2023-06-10T01:25:46;101567.50;;;21.48;46.63
64200;BME280;50516;52.272;5.136;2023-06-10T01:28:17;101567.81;;;21.55;46.64
64200;BME280;50516;52.272;5.136;2023-06-10T01:31:08;101578.03;;;21.51;46.64
64200;BME280;50516;52.272;5.136;2023-06-10T01:33:39;101568.94;;;21.45;46.89
64200;BME280;50516;52.272;5.136;2023-06-10T01:36:07;101559.44;;;21.46;46.99
64200;BME280;50516;52.272;5.136;2023-06-10T01:38:38;101561.53;;;21.41;47.08
64200;BME280;50516;52.272;5.136;2023-06-10T01:41:04;101553.00;;;21.46;46.88
64200;BME280;50516;52.272;5.136;2023-06-10T01:43:36;101564.50;;;21.36;47.05
64200;BME280;50516;52.272;5.136;2023-06-10T01:46:02;101561.22;;;21.33;47.68
64200;BME280;50516;52.272;5.136;2023-06-10T01:48:27;101563.19;;;21.33;47.32
64200;BME280;50516;52.272;5.136;2023-06-10T01:50:54;101566.50;;;21.35;47.33
64200;BME280;50516;52.272;5.136;2023-06-10T01:53:21;101560.38;;;21.33;47.16
64200;BME280;50516;52.272;5.136;2023-06-10T01:55:47;101569.63;;;21.33;47.29
64200;BME280;50516;52.272;5.136;2023-06-10T01:58:13;101562.53;;;21.27;47.64
64200;BME280;50516;52.272;5.136;2023-06-10T02:00:40;101561.41;;;21.28;47.57
64200;BME280;50516;52.272;5.136;2023-06-10T02:03:06;101562.19;;;21.20;47.75
64200;BME280;50516;52.272;5.136;2023-06-10T02:05:31;101570.72;;;21.15;47.84
64200;BME280;50516;52.272;5.136;2023-06-10T02:07:57;101567.78;;;21.20;48.20
64200;BME280;50516;52.272;5.136;2023-06-10T02:10:23;101573.34;;;21.20;48.13
64200;BME280;50516;52.272;5.136;2023-06-10T02:12:48;101578.28;;;21.23;48.20
64200;BME280;50516;52.272;5.136;2023-06-10T02:15:14;101573.03;;;21.22;48.27
64200;BME280;50516;52.272;5.136;2023-06-10T02:17:39;101575.34;;;21.11;48.60
64200;BME280;50516;52.272;5.136;2023-06-10T02:20:06;101570.91;;;21.01;48.96
64200;BME280;50516;52.272;5.136;2023-06-10T02:22:36;101571.22;;;21.00;49.23
64200;BME280;50516;52.272;5.136;2023-06-10T02:25:02;101574.50;;;20.93;49.08
64200;BME280;50516;52.272;5.136;2023-06-10T02:27:28;101575.00;;;21.04;49.25
64200;BME280;50516;52.272;5.136;2023-06-10T02:29:56;101583.88;;;21.06;48.99
64200;BME280;50516;52.272;5.136;2023-06-10T02:32:21;101582.34;;;20.91;49.36
64200;BME280;50516;52.272;5.136;2023-06-10T02:34:47;101574.47;;;20.84;49.59
64200;BME280;50516;52.272;5.136;2023-06-10T02:37:14;101586.63;;;20.88;49.75
64200;BME280;50516;52.272;5.136;2023-06-10T02:39:40;101582.03;;;20.84;49.94
64200;BME280;50516;52.272;5.136;2023-06-10T02:42:08;101575.59;;;20.83;50.02
64200;BME280;50516;52.272;5.136;2023-06-10T02:44:33;101579.22;;;20.84;50.22
64200;BME280;50516;52.272;5.136;2023-06-10T02:46:59;101577.56;;;20.83;50.17
64200;BME280;50516;52.272;5.136;2023-06-10T02:49:24;101575.59;;;20.83;50.19
64200;BME280;50516;52.272;5.136;2023-06-10T02:51:52;101578.75;;;20.82;50.59
64200;BME280;50516;52.272;5.136;2023-06-10T02:54:19;101582.50;;;20.86;50.49
64200;BME280;50516;52.272;5.136;2023-06-10T02:56:45;101573.28;;;20.76;50.93
64200;BME280;50516;52.272;5.136;2023-06-10T02:59:11;101584.13;;;20.78;50.85
64200;BME280;50516;52.272;5.136;2023-06-10T03:01:36;101578.22;;;20.71;51.01
64200;BME280;50516;52.272;5.136;2023-06-10T03:04:04;101568.09;;;20.52;51.65
64200;BME280;50516;52.272;5.136;2023-06-10T03:06:30;101575.00;;;20.55;51.49
64200;BME280;50516;52.272;5.136;2023-06-10T03:08:55;101578.28;;;20.57;51.68
64200;BME280;50516;52.272;5.136;2023-06-10T03:11:23;101581.47;;;20.64;51.48
64200;BME280;50516;52.272;5.136;2023-06-10T03:13:48;101583.41;;;20.64;51.73
64200;BME280;50516;52.272;5.136;2023-06-10T03:16:14;101589.28;;;20.62;51.67
64200;BME280;50516;52.272;5.136;2023-06-10T03:18:39;101579.66;;;20.68;51.66
64200;BME280;50516;52.272;5.136;2023-06-10T03:21:05;101580.91;;;20.62;51.91
64200;BME280;50516;52.272;5.136;2023-06-10T03:23:33;101593.19;;;20.52;52.19
64200;BME280;50516;52.272;5.136;2023-06-10T03:25:58;101583.69;;;20.53;52.22
64200;BME280;50516;52.272;5.136;2023-06-10T03:28:24;101592.53;;;20.47;52.43
64200;BME280;50516;52.272;5.136;2023-06-10T03:30:59;101585.75;;;20.39;52.59
64200;BME280;50516;52.272;5.136;2023-06-10T03:33:24;101591.66;;;20.37;52.84
64200;BME280;50516;52.272;5.136;2023-06-10T03:35:50;101592.84;;;20.45;52.58
64200;BME280;50516;52.272;5.136;2023-06-10T03:38:15;101594.19;;;20.48;52.45
64200;BME280;50516;52.272;5.136;2023-06-10T03:40:41;101588.09;;;20.46;52.57
64200;BME280;50516;52.272;5.136;2023-06-10T03:43:06;101593.97;;;20.44;52.53
64200;BME280;50516;52.272;5.136;2023-06-10T03:45:37;101597.06;;;20.34;52.91
64200;BME280;50516;52.272;5.136;2023-06-10T03:48:03;101592.28;;;20.34;52.94
64200;BME280;50516;52.272;5.136;2023-06-10T03:50:29;101596.91;;;20.39;52.63
64200;BME280;50516;52.272;5.136;2023-06-10T03:52:55;101595.41;;;20.33;53.10
64200;BME280;50516;52.272;5.136;2023-06-10T03:55:20;101600.16;;;20.32;53.24
64200;BME280;50516;52.272;5.136;2023-06-10T03:57:47;101600.19;;;20.41;53.21
64200;BME280;50516;52.272;5.136;2023-06-10T04:00:13;101605.00;;;20.49;52.88
64200;BME280;50516;52.272;5.136;2023-06-10T04:02:40;101601.72;;;20.47;52.99
64200;BME280;50516;52.272;5.136;2023-06-10T04:05:11;101599.75;;;20.48;53.19
64200;BME280;50516;52.272;5.136;2023-06-10T04:07:37;101614.69;;;20.52;52.82
64200;BME280;50516;52.272;5.136;2023-06-10T04:10:05;101608.44;;;20.46;52.99
64200;BME280;50516;52.272;5.136;2023-06-10T04:12:31;101613.72;;;20.56;52.94
64200;BME280;50516;52.272;5.136;2023-06-10T04:14:56;101608.25;;;20.74;52.79
64200;BME280;50516;52.272;5.136;2023-06-10T04:17:21;101610.91;;;20.79;52.75
64200;BME280;50516;52.272;5.136;2023-06-10T04:19:47;101606.13;;;20.79;52.68
64200;BME280;50516;52.272;5.136;2023-06-10T04:22:15;101608.97;;;20.88;52.33
64200;BME280;50516;52.272;5.136;2023-06-10T04:24:40;101613.91;;;20.91;52.40
64200;BME280;50516;52.272;5.136;2023-06-10T04:27:06;101621.59;;;20.94;52.40
64200;BME280;50516;52.272;5.136;2023-06-10T04:29:32;101626.25;;;21.16;51.95
64200;BME280;50516;52.272;5.136;2023-06-10T04:31:57;101620.72;;;21.25;52.01
64200;BME280;50516;52.272;5.136;2023-06-10T04:34:23;101622.34;;;21.35;51.68
64200;BME280;50516;52.272;5.136;2023-06-10T04:36:48;101626.34;;;21.51;51.19
64200;BME280;50516;52.272;5.136;2023-06-10T04:39:13;101626.34;;;21.51;51.18
64200;BME280;50516;52.272;5.136;2023-06-10T04:41:41;101618.47;;;21.62;50.96
64200;BME280;50516;52.272;5.136;2023-06-10T04:44:07;101613.66;;;21.54;50.95
64200;BME280;50516;52.272;5.136;2023-06-10T04:46:32;101620.91;;;21.64;51.06
64200;BME280;50516;52.272;5.136;2023-06-10T04:49:06;101629.47;;;21.67;51.12
64200;BME280;50516;52.272;5.136;2023-06-10T04:51:32;101625.66;;;21.81;50.64
64200;BME280;50516;52.272;5.136;2023-06-10T04:53:58;101630.06;;;21.99;50.21
64200;BME280;50516;52.272;5.136;2023-06-10T04:56:23;101622.84;;;22.07;50.16
64200;BME280;50516;52.272;5.136;2023-06-10T04:58:49;101635.19;;;22.06;50.27
64200;BME280;50516;52.272;5.136;2023-06-10T05:01:14;101630.56;;;22.10;50.21
64200;BME280;50516;52.272;5.136;2023-06-10T05:03:40;101633.50;;;22.31;49.94
64200;BME280;50516;52.272;5.136;2023-06-10T05:06:08;101630.38;;;22.33;49.72
64200;BME280;50516;52.272;5.136;2023-06-10T05:08:33;101635.13;;;22.23;49.94
64200;BME280;50516;52.272;5.136;2023-06-10T05:10:59;101644.69;;;22.31;49.75
64200;BME280;50516;52.272;5.136;2023-06-10T05:13:24;101631.88;;;22.30;49.98
64200;BME280;50516;52.272;5.136;2023-06-10T05:15:50;101635.44;;;22.48;49.55
64200;BME280;50516;52.272;5.136;2023-06-10T05:18:15;101635.53;;;22.60;49.68
64200;BME280;50516;52.272;5.136;2023-06-10T05:20:41;101629.09;;;22.69;49.26
64200;BME280;50516;52.272;5.136;2023-06-10T05:23:09;101622.78;;;22.81;49.22
64200;BME280;50516;52.272;5.136;2023-06-10T05:25:37;101623.94;;;22.79;49.25
64200;BME280;50516;52.272;5.136;2023-06-10T05:28:02;101625.09;;;22.78;48.94
64200;BME280;50516;52.272;5.136;2023-06-10T05:30:28;101630.59;;;22.96;48.75
64200;BME280;50516;52.272;5.136;2023-06-10T05:32:53;101635.25;;;22.92;48.99
64200;BME280;50516;52.272;5.136;2023-06-10T05:35:19;101634.72;;;22.98;48.69
64200;BME280;50516;52.272;5.136;2023-06-10T05:37:44;101631.34;;;23.14;48.74
64200;BME280;50516;52.272;5.136;2023-06-10T05:40:13;101634.78;;;23.20;48.30
64200;BME280;50516;52.272;5.136;2023-06-10T05:42:41;101635.84;;;23.06;48.34
64200;BME280;50516;52.272;5.136;2023-06-10T05:45:07;101635.78;;;23.15;48.46
64200;BME280;50516;52.272;5.136;2023-06-10T05:47:33;101635.72;;;23.24;48.30
64200;BME280;50516;52.272;5.136;2023-06-10T05:49:58;101631.91;;;23.28;48.31
64200;BME280;50516;52.272;5.136;2023-06-10T05:52:23;101642.25;;;23.07;48.47
64200;BME280;50516;52.272;5.136;2023-06-10T05:54:50;101640.06;;;23.42;48.19
64200;BME280;50516;52.272;5.136;2023-06-10T05:57:15;101646.09;;;23.32;48.05
64200;BME280;50516;52.272;5.136;2023-06-10T05:59:40;101641.34;;;23.24;48.61
64200;BME280;50516;52.272;5.136;2023-06-10T06:02:07;101639.44;;;23.37;48.67
64200;BME280;50516;52.272;5.136;2023-06-10T06:04:33;101636.38;;;23.50;47.87
64200;BME280;50516;52.272;5.136;2023-06-10T06:06:58;101637.25;;;23.63;48.38
64200;BME280;50516;52.272;5.136;2023-06-10T06:09:24;101644.78;;;23.72;48.42
64200;BME280;50516;52.272;5.136;2023-06-10T06:11:49;101641.78;;;23.56;48.53
64200;BME280;50516;52.272;5.136;2023-06-10T06:14:14;101633.78;;;23.66;48.19
64200;BME280;50516;52.272;5.136;2023-06-10T06:16:40;101642.72;;;23.81;47.55
64200;BME280;50516;52.272;5.136;2023-06-10T06:19:08;101641.16;;;23.92;47.94
64200;BME280;50516;52.272;5.136;2023-06-10T06:21:34;101642.66;;;23.90;47.57
64200;BME280;50516;52.272;5.136;2023-06-10T06:24:00;101642.41;;;24.16;48.32
64200;BME280;50516;52.272;5.136;2023-06-10T06:26:25;101634.63;;;24.34;47.65
64200;BME280;50516;52.272;5.136;2023-06-10T06:28:50;101643.66;;;24.52;47.38
64200;BME280;50516;52.272;5.136;2023-06-10T06:31:17;101633.28;;;24.19;46.61
64200;BME280;50516;52.272;5.136;2023-06-10T06:33:42;101644.84;;;24.17;46.59
64200;BME280;50516;52.272;5.136;2023-06-10T06:36:07;101636.03;;;23.94;47.28
64200;BME280;50516;52.272;5.136;2023-06-10T06:38:33;101633.16;;;24.03;47.13
64200;BME280;50516;52.272;5.136;2023-06-10T06:40:58;101633.22;;;24.28;46.05
64200;BME280;50516;52.272;5.136;2023-06-10T06:43:28;101639.16;;;24.59;46.15
64200;BME280;50516;52.272;5.136;2023-06-10T06:45:57;101635.84;;;24.57;46.37
64200;BME280;50516;52.272;5.136;2023-06-10T06:48:23;101633.41;;;24.56;46.26
64200;BME280;50516;52.272;5.136;2023-06-10T06:50:49;101639.06;;;24.81;45.95
64200;BME280;50516;52.272;5.136;2023-06-10T06:53:14;101638.44;;;24.75;45.46
64200;BME280;50516;52.272;5.136;2023-06-10T06:55:39;101641.25;;;24.75;46.27
64200;BME280;50516;52.272;5.136;2023-06-10T06:58:05;101634.72;;;24.95;45.45
64200;BME280;50516;52.272;5.136;2023-06-10T07:00:31;101642.31;;;25.07;45.47
64200;BME280;50516;52.272;5.136;2023-06-10T07:02:58;101632.81;;;25.00;45.95
64200;BME280;50516;52.272;5.136;2023-06-10T07:05:24;101640.91;;;24.89;45.56
64200;BME280;50516;52.272;5.136;2023-06-10T07:07:52;101645.09;;;24.95;45.25
64200;BME280;50516;52.272;5.136;2023-06-10T07:10:21;101649.81;;;25.03;45.73
64200;BME280;50516;52.272;5.136;2023-06-10T07:12:49;101649.69;;;25.24;45.07
64200;BME280;50516;52.272;5.136;2023-06-10T07:15:15;101651.75;;;25.52;44.40
64200;BME280;50516;52.272;5.136;2023-06-10T07:17:41;101640.88;;;25.38;45.17
64200;BME280;50516;52.272;5.136;2023-06-10T07:20:06;101647.56;;;25.21;44.19
64200;BME280;50516;52.272;5.136;2023-06-10T07:22:32;101648.28;;;25.18;44.40
64200;BME280;50516;52.272;5.136;2023-06-10T07:24:57;101643.03;;;25.29;44.43
64200;BME280;50516;52.272;5.136;2023-06-10T07:27:23;101651.16;;;25.59;44.57
64200;BME280;50516;52.272;5.136;2023-06-10T07:29:48;101645.09;;;25.44;44.21
64200;BME280;50516;52.272;5.136;2023-06-10T07:32:14;101646.13;;;25.52;43.67
64200;BME280;50516;52.272;5.136;2023-06-10T07:34:39;101655.13;;;25.58;44.62
64200;BME280;50516;52.272;5.136;2023-06-10T07:37:05;101659.84;;;25.82;43.38
64200;BME280;50516;52.272;5.136;2023-06-10T07:39:30;101653.34;;;25.65;44.25
64200;BME280;50516;52.272;5.136;2023-06-10T07:41:55;101657.44;;;26.09;43.44
64200;BME280;50516;52.272;5.136;2023-06-10T07:44:22;101655.13;;;25.98;43.97
64200;BME280;50516;52.272;5.136;2023-06-10T07:46:50;101665.00;;;26.20;43.16
64200;BME280;50516;52.272;5.136;2023-06-10T07:49:16;101659.31;;;26.49;43.28
64200;BME280;50516;52.272;5.136;2023-06-10T07:51:44;101656.06;;;26.78;42.05
64200;BME280;50516;52.272;5.136;2023-06-10T07:54:10;101661.66;;;26.47;42.39
64200;BME280;50516;52.272;5.136;2023-06-10T07:56:37;101662.25;;;26.68;42.88
64200;BME280;50516;52.272;5.136;2023-06-10T07:59:02;101665.13;;;27.20;41.59
64200;BME280;50516;52.272;5.136;2023-06-10T08:01:28;101658.00;;;26.74;41.45
64200;BME280;50516;52.272;5.136;2023-06-10T08:03:55;101670.97;;;26.79;41.80
64200;BME280;50516;52.272;5.136;2023-06-10T08:06:20;101667.91;;;26.84;41.97
64200;BME280;50516;52.272;5.136;2023-06-10T08:08:45;101664.16;;;26.64;42.15
64200;BME280;50516;52.272;5.136;2023-06-10T08:11:11;101668.72;;;26.85;41.82
64200;BME280;50516;52.272;5.136;2023-06-10T08:13:37;101659.97;;;26.90;41.30
64200;BME280;50516;52.272;5.136;2023-06-10T08:16:02;101652.72;;;26.89;41.35
64200;BME280;50516;52.272;5.136;2023-06-10T08:18:28;101669.44;;;26.82;41.61
64200;BME280;50516;52.272;5.136;2023-06-10T08:20:54;101662.50;;;26.63;41.36
64200;BME280;50516;52.272;5.136;2023-06-10T08:23:22;101663.97;;;26.57;41.90
64200;BME280;50516;52.272;5.136;2023-06-10T08:25:48;101663.44;;;26.67;41.36
64200;BME280;50516;52.272;5.136;2023-06-10T08:28:13;101661.97;;;26.89;41.42
64200;BME280;50516;52.272;5.136;2023-06-10T08:30:38;101665.66;;;27.09;41.59
64200;BME280;50516;52.272;5.136;2023-06-10T08:33:03;101661.59;;;27.78;39.92
64200;BME280;50516;52.272;5.136;2023-06-10T08:35:29;101666.16;;;28.02;39.76
64200;BME280;50516;52.272;5.136;2023-06-10T08:37:55;101672.94;;;28.20;38.89
64200;BME280;50516;52.272;5.136;2023-06-10T08:40:20;101664.56;;;28.04;38.98
64200;BME280;50516;52.272;5.136;2023-06-10T08:45:30;101661.06;;;27.92;39.96
64200;BME280;50516;52.272;5.136;2023-06-10T08:48:04;101654.34;;;27.96;40.16
64200;BME280;50516;52.272;5.136;2023-06-10T08:50:37;101669.03;;;27.86;40.15
64200;BME280;50516;52.272;5.136;2023-06-10T08:53:06;101667.50;;;27.73;39.85
64200;BME280;50516;52.272;5.136;2023-06-10T08:55:35;101658.41;;;27.79;40.38
64200;BME280;50516;52.272;5.136;2023-06-10T08:58:01;101662.53;;;27.66;40.33
64200;BME280;50516;52.272;5.136;2023-06-10T09:00:28;101659.19;;;28.19;39.71
64200;BME280;50516;52.272;5.136;2023-06-10T09:02:55;101661.06;;;27.92;39.56
64200;BME280;50516;52.272;5.136;2023-06-10T09:05:21;101666.19;;;27.86;39.47
64200;BME280;50516;52.272;5.136;2023-06-10T09:07:48;101665.66;;;27.61;40.02
64200;BME280;50516;52.272;5.136;2023-06-10T09:10:13;101667.97;;;27.55;39.91
64200;BME280;50516;52.272;5.136;2023-06-10T09:12:38;101665.94;;;27.36;40.62
64200;BME280;50516;52.272;5.136;2023-06-10T09:15:05;101665.28;;;27.27;41.13
64200;BME280;50516;52.272;5.136;2023-06-10T09:17:31;101667.91;;;27.36;40.75
64200;BME280;50516;52.272;5.136;2023-06-10T09:19:57;101658.41;;;27.79;40.12
64200;BME280;50516;52.272;5.136;2023-06-10T09:22:23;101664.16;;;28.26;39.08
64200;BME280;50516;52.272;5.136;2023-06-10T09:24:49;101659.22;;;27.80;39.23
64200;BME280;50516;52.272;5.136;2023-06-10T09:27:15;101658.41;;;28.18;39.04
64200;BME280;50516;52.272;5.136;2023-06-10T09:29:50;101661.66;;;28.20;38.91
64200;BME280;50516;52.272;5.136;2023-06-10T09:32:17;101666.00;;;27.95;38.43
64200;BME280;50516;52.272;5.136;2023-06-10T09:34:43;101673.69;;;27.78;38.93
64200;BME280;50516;52.272;5.136;2023-06-10T09:37:09;101671.31;;;27.80;39.32
64200;BME280;50516;52.272;5.136;2023-06-10T09:39:37;101664.94;;;28.03;39.61
64200;BME280;50516;52.272;5.136;2023-06-10T09:42:15;101664.25;;;28.52;38.38
64200;BME280;50516;52.272;5.136;2023-06-10T09:44:41;101661.44;;;28.10;38.68
64200;BME280;50516;52.272;5.136;2023-06-10T09:47:06;101664.06;;;27.99;38.20
64200;BME280;50516;52.272;5.136;2023-06-10T09:49:31;101663.22;;;27.98;37.57
64200;BME280;50516;52.272;5.136;2023-06-10T09:51:57;101661.72;;;27.85;38.23
64200;BME280;50516;52.272;5.136;2023-06-10T09:54:22;101661.53;;;27.94;38.18
64200;BME280;50516;52.272;5.136;2023-06-10T09:56:50;101658.13;;;28.04;37.50
64200;BME280;50516;52.272;5.136;2023-06-10T09:59:16;101658.44;;;27.99;38.34
64200;BME280;50516;52.272;5.136;2023-06-10T10:01:55;101657.81;;;27.90;37.71
64200;BME280;50516;52.272;5.136;2023-06-10T10:04:24;101659.28;;;27.83;38.17
64200;BME280;50516;52.272;5.136;2023-06-10T10:06:52;101664.25;;;27.90;37.93
64200;BME280;50516;52.272;5.136;2023-06-10T10:09:18;101663.47;;;28.09;37.95
64200;BME280;50516;52.272;5.136;2023-06-10T10:11:44;101663.25;;;28.41;37.17
64200;BME280;50516;52.272;5.136;2023-06-10T10:14:09;101658.88;;;28.24;35.97
64200;BME280;50516;52.272;5.136;2023-06-10T10:16:37;101656.84;;;28.44;36.78
64200;BME280;50516;52.272;5.136;2023-06-10T10:19:16;101647.06;;;28.61;36.19
64200;BME280;50516;52.272;5.136;2023-06-10T10:21:50;101646.47;;;28.52;36.63
64200;BME280;50516;52.272;5.136;2023-06-10T10:24:23;101656.81;;;28.64;36.62
64200;BME280;50516;52.272;5.136;2023-06-10T10:26:54;101649.19;;;28.68;36.01
64200;BME280;50516;52.272;5.136;2023-06-10T10:29:30;101650.47;;;28.70;36.46
64200;BME280;50516;52.272;5.136;2023-06-10T10:31:56;101646.38;;;28.91;36.70
64200;BME280;50516;52.272;5.136;2023-06-10T10:37:17;101647.97;;;28.92;35.00
64200;BME280;50516;52.272;5.136;2023-06-10T10:39:46;101639.91;;;28.67;33.79
64200;BME280;50516;52.272;5.136;2023-06-10T10:42:12;101636.66;;;28.65;34.33
64200;BME280;50516;52.272;5.136;2023-06-10T10:44:41;101643.47;;;29.14;33.69
64200;BME280;50516;52.272;5.136;2023-06-10T10:47:10;101641.13;;;29.46;33.44
64200;BME280;50516;52.272;5.136;2023-06-10T10:49:37;101641.56;;;29.18;34.24
64200;BME280;50516;52.272;5.136;2023-06-10T10:52:03;101636.34;;;29.20;33.68
64200;BME280;50516;52.272;5.136;2023-06-10T10:54:36;101642.72;;;29.17;34.13
64200;BME280;50516;52.272;5.136;2023-06-10T11:04:54;101627.44;;;28.95;33.22
64200;BME280;50516;52.272;5.136;2023-06-10T11:07:20;101615.19;;;28.87;33.36
64200;BME280;50516;52.272;5.136;2023-06-10T11:12:25;101617.81;;;29.00;33.13
64200;BME280;50516;52.272;5.136;2023-06-10T11:14:54;101625.69;;;28.87;33.61
64200;BME280;50516;52.272;5.136;2023-06-10T11:17:21;101623.25;;;28.85;32.64
64200;BME280;50516;52.272;5.136;2023-06-10T11:19:46;101626.84;;;29.09;31.86
64200;BME280;50516;52.272;5.136;2023-06-10T11:22:19;101624.88;;;29.13;31.05
64200;BME280;50516;52.272;5.136;2023-06-10T11:24:49;101618.72;;;29.04;31.91
64200;BME280;50516;52.272;5.136;2023-06-10T11:27:22;101612.28;;;29.07;31.20
64200;BME280;50516;52.272;5.136;2023-06-10T11:29:56;101608.16;;;29.01;31.69
64200;BME280;50516;52.272;5.136;2023-06-10T11:32:21;101605.66;;;28.95;32.25
64200;BME280;50516;52.272;5.136;2023-06-10T11:34:52;101604.69;;;29.41;31.69
64200;BME280;50516;52.272;5.136;2023-06-10T11:37:21;101611.00;;;29.61;31.93
64200;BME280;50516;52.272;5.136;2023-06-10T11:39:47;101613.63;;;29.43;31.61
64200;BME280;50516;52.272;5.136;2023-06-10T11:42:16;101601.19;;;29.21;31.42
64200;BME280;50516;52.272;5.136;2023-06-10T11:44:50;101603.28;;;29.58;31.28
64200;BME280;50516;52.272;5.136;2023-06-10T11:47:16;101602.94;;;29.29;30.73
64200;BME280;50516;52.272;5.136;2023-06-10T11:49:42;101599.81;;;29.38;30.53
64200;BME280;50516;52.272;5.136;2023-06-10T11:52:07;101599.44;;;29.40;31.45
64200;BME280;50516;52.272;5.136;2023-06-10T11:54:33;101593.19;;;29.57;31.91
64200;BME280;50516;52.272;5.136;2023-06-10T11:56:59;101607.69;;;29.52;31.45
64200;BME280;50516;52.272;5.136;2023-06-10T11:59:31;101604.41;;;29.50;31.59
64200;BME280;50516;52.272;5.136;2023-06-10T12:01:56;101596.88;;;29.31;31.29
64200;BME280;50516;52.272;5.136;2023-06-10T12:04:25;101597.75;;;29.08;30.95
64200;BME280;50516;52.272;5.136;2023-06-10T12:06:52;101592.44;;;29.03;30.90
64200;BME280;50516;52.272;5.136;2023-06-10T12:09:20;101598.03;;;29.26;31.37
64200;BME280;50516;52.272;5.136;2023-06-10T12:11:50;101591.41;;;29.15;30.92
64200;BME280;50516;52.272;5.136;2023-06-10T12:14:55;101574.06;;;29.17;30.82
64200;BME280;50516;52.272;5.136;2023-06-10T12:17:36;101571.75;;;29.56;30.94
64200;BME280;50516;52.272;5.136;2023-06-10T12:20:04;101569.94;;;29.41;30.80
64200;BME280;50516;52.272;5.136;2023-06-10T12:22:41;101575.69;;;29.48;31.20
64200;BME280;50516;52.272;5.136;2023-06-10T12:25:08;101560.47;;;29.60;30.60
64200;BME280;50516;52.272;5.136;2023-06-10T12:27:34;101570.28;;;29.69;30.96
64200;BME280;50516;52.272;5.136;2023-06-10T12:30:01;101577.06;;;29.99;30.39
64200;BME280;50516;52.272;5.136;2023-06-10T12:32:40;101565.06;;;29.72;30.17
64200;BME280;50516;52.272;5.136;2023-06-10T12:35:06;101557.56;;;29.53;30.21
64200;BME280;50516;52.272;5.136;2023-06-10T12:37:32;101572.53;;;29.57;30.23
64200;BME280;50516;52.272;5.136;2023-06-10T12:40:02;101576.84;;;29.43;29.89
64200;BME280;50516;52.272;5.136;2023-06-10T12:42:29;101567.53;;;29.43;30.54
64200;BME280;50516;52.272;5.136;2023-06-10T12:44:59;101564.03;;;30.28;29.20
64200;BME280;50516;52.272;5.136;2023-06-10T12:47:35;101567.47;;;30.07;29.81
64200;BME280;50516;52.272;5.136;2023-06-10T12:50:02;101563.78;;;29.65;29.66
64200;BME280;50516;52.272;5.136;2023-06-10T12:52:28;101562.56;;;29.66;29.75
64200;BME280;50516;52.272;5.136;2023-06-10T12:54:55;101558.06;;;30.40;29.17
64200;BME280;50516;52.272;5.136;2023-06-10T12:57:21;101567.91;;;30.09;28.87
64200;BME280;50516;52.272;5.136;2023-06-10T12:59:46;101569.50;;;29.73;29.03
64200;BME280;50516;52.272;5.136;2023-06-10T13:02:17;101563.78;;;29.65;29.38
64200;BME280;50516;52.272;5.136;2023-06-10T13:04:43;101558.94;;;29.69;29.02
64200;BME280;50516;52.272;5.136;2023-06-10T13:07:09;101573.72;;;29.52;29.23